Airfield :







YOU CAN JOIN US ON...

 
LOGIN :

Register | Disclaimer

   EN    FR    IT 

 









Legend :    VFR   Marginal VFR   IFR   Intensive IFR   Very Intensive IFR
Visi :
Ceiling :
>= 8 km
>= 3000ft
5 to 8 km
1000 to 3000 ft
1500m to 5 km
500 to 1000 ft
800 to 1500m
200 to 500 ft
< 800m
< 200 ft
Symbols :   Thunderstorms  Fog  Heavy snow  Heavy precipitations  Wind > 20 kt






- Airport Elevation : 266 ft
- IATA code : MHT


KMHT - Manchester

CURRENT METAR :
  • 050653Z 19005KT 10SM SCT110 OVC200 23/15 A2984 RMK AO2 SLP113 T02330150

EXPIRED METARs :
  • 050553Z 17004KT 10SM OVC120 23/14 A2985 RMK AO2 SLP114 T02330139 10289 20233 58002
  • 050453Z 18004KT 10SM SCT150 OVC250 23/14 A2985 RMK AO2 SLP115 T02330139 403170139

TAF KMHT
Valid from the 05 at 06:00 until the 06 at 06:00 UTC


050520Z 0506/0606 18006KT P6SM BKN110
FM050900 VRB03KT P6SM VCSH OVC060
FM051300 20005KT P6SM VCSH OVC030
FM051700 22008G15KT P6SM SCT050
FM060100 VRB04KT P6SM BKN250
KZBW FIR / North America



MET'MAP, your aeronautical weather chart ! - Copyright ORBIFLY December 2007 - Disclaimer

ORBIFLY MET'MAP TEAM :

Programming & Development : Alexandra Zaïnal
Concept & original design : Baudouin d'Aumeries
Assistance for programming : Marc-Olivier Méhu
Technical & hardware support : Manuel Goepfert

Contact : metmap@orbifly.com




SOURCES & CREDITS :

   NOAA